Cut Bank, MT

12:21 AM MDT on August 31, 2014 (GMT -0600)
Cut Bank Municipal | Change Station
CLOSE
Current Station
Airport
Location: Cut Bank,
Elevation: 3855 ft
Nearby Weather Stations

Elev 3855 ft 48.61 °N, 112.38 °W | Updated 5 minutes ago

Partly Cloudy
Partly Cloudy
58 °F
Feels Like 58 °F
N
15
Wind Variable Wind from West

Today
High -- | Low -- °F
--% Chance of Precip.
Yesterday
High -- | Low -- °F
Precip. -- in
6:45 AM 8:13 PM
Waxing Crescent, 28% visible
Pressure 29.79 in
Visibility 10.0 miles
Clouds Few 200 ft
Dew Point 39 °F
Humidity 49%
Rainfall 0.00 in
Snow Depth Not available.
UV 0 out of 12
Pollen 3.50 out of 12
Air Quality Not available.
Flu Activity Not available.
SPECI KCTB 310616Z AUTO 26013KT 10SM FEW002 14/04 A2979 RMK AO2 T01440039

More Conditions Fewer Conditions

Pressure 29.79 in
Visibility 10.0 miles
Clouds Few 200 ft
Dew Point 39 °F
Humidity 49%
Rainfall 0.00 in
Snow Depth Not available.
UV 0 out of 12
Pollen 3.50 out of 12
Air Quality Not available.
Flu Activity Not available.
SPECI KCTB 310616Z AUTO 26013KT 10SM FEW002 14/04 A2979 RMK AO2 T01440039

More Conditions Fewer Conditions

10-Day Weather Forecast

Almanac

Astronomy

Aug. 31, 2014 Rise Set
Actual Time 6:45 AM MDT 8:13 PM MDT
Civil Twilight 6:12 AM MDT 8:45 PM MDT
Nautical Twilight 5:32 AM MDT 9:25 PM MDT
Astronomical Twilight 4:49 AM MDT 10:08 PM MDT
Moon 1:05 PM MDT 10:59 PM MDT
Length of Visible Light 14h 33m
Length of Day
13h 27m
Tomorrow will be 3m 27s shorter.
Waxing Crescent, 28% of the Moon is Illuminated
Today
Waxing Crescent
Sep 2
First Quarter
Sep 8
Full
Sep 15
Last Quarter
Sep 24
New

Community

WunderPhotos

Upload Photos

1,748,801 photos uploaded!

Nearby

Snow Depth

Station Depth Elevation
Dupuyer Creek 0 in 5750 ft
Badger Pass 1 in 6900 ft
Waldron 1 in 5600 ft
Emery Creek 0 in 4350 ft
Wood Creek 0 in 5960 ft

Earthquake Activity

City Distance Mag. Time & Date
No recent earthquake activity has been reported nearby.
Minimum magnitude displayed is 2.5.

Coastal Water Temperatures

Place Temperature
No Stations Reporting

Nearby Weather Stations